Time;durP1;ratioP1;P1;durP2;ratioP2;P2;SDS_P1;SDS_P2;PMS_P1;PMS_P2;Temp;Humidity;BMP_temperature;BMP_pressure;BME280_temperature;BME280_humidity;BME280_pressure;Samples;Min_cycle;Max_cycle;Signal;HPM_P1;HPM_P2
2021/12/21 00:02:09;;;;;;;5.80;3.27;;;;;;;-5.06;100.00;97201.53;5095231;28;20461;-72
2021/12/21 00:04:36;;;;;;;4.27;3.53;;;;;;;-5.00;100.00;97230.84;5092069;28;20488;-72
2021/12/21 00:07:04;;;;;;;4.53;3.60;;;;;;;-5.00;100.00;97228.25;5090757;28;20463;-72
2021/12/21 00:09:31;;;;;;;3.70;3.43;;;;;;;-5.38;100.00;97227.19;5091762;28;20427;-72
2021/12/21 00:12:00;;;;;;;4.30;4.00;;;;;;;-5.60;100.00;97225.88;5090576;28;20427;-72
2021/12/21 00:17:09;;;;;;;7.07;4.40;;;;;;;-5.59;100.00;97199.13;5089866;28;20841;-72
2021/12/21 00:22:16;;;;;;;7.83;4.33;;;;;;;-5.52;100.00;97202.47;5091620;28;20830;-72
2021/12/21 00:24:47;;;;;;;5.77;4.10;;;;;;;-5.51;100.00;97182.66;5093037;28;20502;-74
2021/12/21 00:27:15;;;;;;;6.60;4.17;;;;;;;-5.40;100.00;97206.00;5076350;28;20502;-72
2021/12/21 00:29:42;;;;;;;6.73;4.70;;;;;;;-5.34;100.00;97196.69;5093357;28;20943;-72
2021/12/21 00:32:09;;;;;;;4.00;3.67;;;;;;;-5.34;100.00;97204.41;5093375;28;20443;-72
2021/12/21 00:34:38;;;;;;;6.10;5.20;;;;;;;-5.23;100.00;97214.06;5093775;28;20442;-73
2021/12/21 00:37:05;;;;;;;7.90;5.30;;;;;;;-5.33;100.00;97212.94;5093260;28;20528;-72
2021/12/21 00:39:32;;;;;;;9.00;6.63;;;;;;;-5.37;100.00;97210.75;5093074;28;20502;-72
2021/12/21 00:41:59;;;;;;;13.37;6.90;;;;;;;-5.62;100.00;97198.72;5094314;28;20958;-72
2021/12/21 00:44:25;;;;;;;12.07;6.47;;;;;;;-5.55;100.00;97212.38;5094044;28;20428;-72
2021/12/21 00:46:52;;;;;;;9.40;7.30;;;;;;;-5.60;100.00;97209.63;5092732;28;20559;-70
2021/12/21 00:49:20;;;;;;;8.73;6.20;;;;;;;-5.61;100.00;97208.03;5092780;28;20467;-70
2021/12/21 00:51:47;;;;;;;16.27;7.10;;;;;;;-5.61;100.00;97202.88;5094012;28;20435;-70
2021/12/21 00:54:16;;;;;;;7.93;5.70;;;;;;;-5.79;100.00;97206.88;5092855;28;20478;-73
2021/12/21 00:56:43;;;;;;;8.27;6.20;;;;;;;-5.88;100.00;97164.31;5094119;28;20455;-73
2021/12/21 00:59:10;;;;;;;9.03;5.50;;;;;;;-5.61;100.00;97208.81;5093813;28;21061;-73
2021/12/21 01:01:40;;;;;;;7.20;5.53;;;;;;;-5.69;100.00;97211.63;5094224;28;20444;-70
2021/12/21 01:04:16;;;;;;;7.27;6.17;;;;;;;-5.72;100.00;97207.66;5093040;28;20431;-73
2021/12/21 01:06:57;;;;;;;9.33;5.70;;;;;;;-5.78;100.00;97202.53;5093740;28;20572;-72
2021/12/21 01:12:14;;;;;;;8.77;7.00;;;;;;;-5.73;100.00;97203.50;5093488;28;20443;-70
2021/12/21 01:17:56;;;;;;;6.97;4.97;;;;;;;-5.75;100.00;97204.69;5033800;28;20492;-70
2021/12/21 01:20:29;;;;;;;8.47;5.47;;;;;;;-5.62;100.00;97207.25;5085609;28;20471;-72
2021/12/21 01:30:45;;;;;;;7.30;6.40;;;;;;;-5.79;100.00;97180.34;5093234;28;20470;-70
2021/12/21 01:35:46;;;;;;;6.93;5.20;;;;;;;-5.63;100.00;97213.38;5091477;28;20435;-70
2021/12/21 01:38:30;;;;;;;10.50;5.40;;;;;;;-5.74;100.00;97193.41;5092837;28;20504;-70
2021/12/21 01:41:04;;;;;;;5.23;4.70;;;;;;;-5.68;100.00;97216.56;5091672;28;20507;-70
2021/12/21 01:43:38;;;;;;;9.53;4.93;;;;;;;-5.78;100.00;97200.72;5091613;28;20451;-70
2021/12/21 01:51:36;;;;;;;5.03;4.20;;;;;;;-6.36;100.00;97199.81;5092789;28;20424;-70
2021/12/21 01:54:03;;;;;;;5.50;3.93;;;;;;;-6.19;100.00;97213.06;5091386;28;20443;-71
2021/12/21 01:56:29;;;;;;;4.60;4.17;;;;;;;-6.17;100.00;97206.72;5074504;28;20487;-70
2021/12/21 01:58:58;;;;;;;5.07;3.90;;;;;;;-6.07;100.00;97202.00;5092487;28;20491;-71
2021/12/21 02:01:26;;;;;;;4.93;3.93;;;;;;;-6.17;100.00;97196.44;5091419;28;20493;-71
2021/12/21 02:03:54;;;;;;;6.63;3.27;;;;;;;-6.05;100.00;97196.63;5091115;28;20492;-71
2021/12/21 02:06:25;;;;;;;3.27;2.97;;;;;;;-6.10;100.00;97199.81;5074269;28;20440;-70
2021/12/21 02:08:53;;;;;;;5.33;3.57;;;;;;;-5.97;100.00;97192.09;5092374;28;20451;-71
2021/12/21 02:11:21;;;;;;;8.80;3.80;;;;;;;-5.99;100.00;97193.28;5091023;28;20457;-71
2021/12/21 02:13:49;;;;;;;4.43;3.70;;;;;;;-6.02;100.00;97191.88;5092463;28;20520;-70
2021/12/21 02:16:24;;;;;;;4.90;4.23;;;;;;;-6.07;100.00;97186.53;5090681;28;20810;-70
2021/12/21 02:19:05;;;;;;;4.90;3.17;;;;;;;-6.06;100.00;97187.34;5073927;28;20482;-71
2021/12/21 02:21:44;;;;;;;4.33;3.27;;;;;;;-5.95;100.00;97191.88;5090998;28;20427;-71
2021/12/21 02:24:15;;;;;;;3.83;3.53;;;;;;;-6.00;100.00;97178.84;5092122;28;20437;-71
2021/12/21 02:29:35;;;;;;;4.57;3.80;;;;;;;-6.00;100.00;97184.78;5090902;28;21287;-71
2021/12/21 02:32:02;;;;;;;10.47;4.17;;;;;;;-6.00;100.00;97187.34;5073745;28;20431;-71
2021/12/21 02:34:29;;;;;;;4.83;4.37;;;;;;;-5.99;100.00;97188.13;5090489;28;20439;-71
2021/12/21 02:36:56;;;;;;;4.03;3.63;;;;;;;-6.10;100.00;97181.00;5090454;28;20497;-71
2021/12/21 02:39:25;;;;;;;5.40;2.90;;;;;;;-6.07;100.00;97183.97;5090399;28;20483;-70
2021/12/21 02:41:52;;;;;;;4.80;4.03;;;;;;;-6.07;100.00;97178.81;5090376;28;20908;-71
2021/12/21 02:44:18;;;;;;;8.00;5.00;;;;;;;-6.10;100.00;97188.75;5090319;28;20496;-70
2021/12/21 02:46:46;;;;;;;4.90;3.60;;;;;;;-6.26;100.00;97169.34;5089789;28;20517;-70
2021/12/21 02:49:14;;;;;;;4.90;4.40;;;;;;;-6.43;100.00;97173.28;5090312;28;20432;-70
2021/12/21 02:51:42;;;;;;;4.50;4.07;;;;;;;-6.26;100.00;97179.63;5091549;28;20462;-71
2021/12/21 02:54:10;;;;;;;5.63;4.07;;;;;;;-6.23;100.00;97181.03;5090174;28;20439;-70
2021/12/21 02:56:37;;;;;;;8.93;4.37;;;;;;;-6.24;100.00;97174.28;5090153;28;20506;-72
2021/12/21 02:59:04;;;;;;;7.97;4.63;;;;;;;-6.25;100.00;97173.50;5073261;28;20528;-71
2021/12/21 03:01:33;;;;;;;6.40;5.50;;;;;;;-6.26;100.00;97170.16;5073585;28;20466;-71
2021/12/21 03:04:00;;;;;;;5.50;3.80;;;;;;;-6.20;100.00;97167.75;5073502;28;20444;-70
2021/12/21 03:07:01;;;;;;;6.80;4.00;;;;;;;-6.26;100.00;97169.34;5091447;28;20460;-71
2021/12/21 03:09:59;;;;;;;8.03;4.10;;;;;;;-6.28;100.00;97164.41;5089958;28;20435;-70
2021/12/21 03:12:29;;;;;;;4.40;4.00;;;;;;;-6.31;100.00;97159.63;5082162;28;20447;-71
2021/12/21 03:14:56;;;;;;;5.63;3.70;;;;;;;-6.34;100.00;97159.25;5091322;28;20431;-71
2021/12/21 03:17:24;;;;;;;5.13;4.63;;;;;;;-6.22;100.00;97170.53;5073322;28;20493;-71
2021/12/21 03:19:50;;;;;;;6.83;3.60;;;;;;;-6.38;100.00;97158.88;5090056;28;20459;-71
2021/12/21 03:22:17;;;;;;;8.10;3.97;;;;;;;-6.22;100.00;97164.59;5091486;28;20435;-71
2021/12/21 03:24:45;;;;;;;4.03;3.70;;;;;;;-6.35;100.00;97167.97;5089837;28;20842;-70
2021/12/21 03:27:12;;;;;;;4.23;3.43;;;;;;;-6.45;100.00;97152.91;5091235;28;20476;-70
2021/12/21 03:29:38;;;;;;;5.20;4.00;;;;;;;-6.41;100.00;97143.84;5089904;28;20995;-71
2021/12/21 03:32:05;;;;;;;4.00;3.60;;;;;;;-6.35;100.00;97152.53;5089935;28;20447;-70
2021/12/21 03:34:32;;;;;;;4.87;4.37;;;;;;;-6.36;100.00;97151.72;5089995;28;20481;-71
2021/12/21 03:36:59;;;;;;;6.50;3.37;;;;;;;-6.41;100.00;97148.16;5089851;28;20525;-71
2021/12/21 03:39:26;;;;;;;3.70;3.40;;;;;;;-6.40;100.00;97162.63;5089780;28;21005;-72
2021/12/21 03:41:56;;;;;;;5.60;3.90;;;;;;;-6.56;100.00;97156.84;5089909;28;20471;-71
2021/12/21 03:44:25;;;;;;;4.40;4.00;;;;;;;-6.75;100.00;97156.84;5091161;28;20522;-71
2021/12/21 03:46:55;;;;;;;3.90;3.50;;;;;;;-6.57;100.00;97155.28;5089631;28;20451;-71
2021/12/21 03:52:04;;;;;;;3.93;3.50;;;;;;;-6.68;100.00;97155.84;5091179;28;20449;-70
2021/12/21 03:54:31;;;;;;;4.70;3.60;;;;;;;-6.73;100.00;97152.31;5089656;28;20477;-71
2021/12/21 03:57:00;;;;;;;3.67;3.30;;;;;;;-6.73;100.00;97153.09;5089652;28;20852;-72
2021/12/21 03:59:27;;;;;;;9.10;3.50;;;;;;;-6.69;100.00;97151.72;5091110;28;20902;-71
2021/12/21 04:01:54;;;;;;;4.30;3.50;;;;;;;-6.65;100.00;97155.50;5076516;28;20974;-70
2021/12/21 04:04:22;;;;;;;9.03;4.37;;;;;;;-6.78;100.00;97134.13;5093421;28;20537;-70
2021/12/21 04:06:49;;;;;;;5.57;4.23;;;;;;;-6.60;100.00;97150.53;5094696;28;20447;-70
2021/12/21 04:09:17;;;;;;;4.90;4.50;;;;;;;-6.66;100.00;97150.53;5093198;28;20446;-71
2021/12/21 04:11:43;;;;;;;6.90;4.47;;;;;;;-6.62;100.00;97157.66;5076444;28;20485;-71
2021/12/21 04:14:11;;;;;;;4.53;4.10;;;;;;;-6.61;100.00;97159.25;5093522;28;20548;-71
2021/12/21 04:16:38;;;;;;;5.40;4.00;;;;;;;-6.82;100.00;97118.28;5093051;28;20459;-71
2021/12/21 04:19:04;;;;;;;4.87;4.47;;;;;;;-6.53;100.00;97162.63;5093361;28;20512;-71
2021/12/21 04:21:32;;;;;;;5.53;4.20;;;;;;;-6.65;100.00;97150.34;5093539;28;20524;-71
2021/12/21 04:23:59;;;;;;;4.40;4.00;;;;;;;-6.65;100.00;97162.41;5093417;28;20978;-71
2021/12/21 04:26:25;;;;;;;4.87;4.40;;;;;;;-6.81;100.00;97139.63;5094815;28;20427;-71
2021/12/21 04:28:52;;;;;;;4.40;4.10;;;;;;;-6.71;100.00;97158.81;5076227;28;20889;-71
2021/12/21 04:31:19;;;;;;;6.10;5.23;;;;;;;-6.76;100.00;97157.84;5094224;28;20474;-71
2021/12/21 04:33:46;;;;;;;5.40;4.90;;;;;;;-7.25;100.00;97110.91;5094001;28;20458;-70
2021/12/21 04:36:14;;;;;;;6.37;5.63;;;;;;;-6.80;100.00;97154.09;5092875;28;20504;-71
2021/12/21 04:38:45;;;;;;;6.10;5.20;;;;;;;-6.90;100.00;97134.69;5092641;28;20523;-71
2021/12/21 04:41:22;;;;;;;7.77;6.10;;;;;;;-6.81;100.00;97144.78;5092694;28;20811;-71
2021/12/21 04:43:54;;;;;;;10.00;7.03;;;;;;;-6.88;100.00;97143.00;5075926;28;20446;-71
2021/12/21 04:46:22;;;;;;;9.80;6.77;;;;;;;-6.96;100.00;97150.09;5092664;28;20504;-71
2021/12/21 04:48:49;;;;;;;8.07;6.57;;;;;;;-6.91;100.00;97142.59;5092561;28;20921;-71
2021/12/21 04:51:15;;;;;;;8.47;5.70;;;;;;;-6.91;100.00;97142.59;5092853;28;20474;-71
2021/12/21 04:53:42;;;;;;;6.00;5.50;;;;;;;-6.96;100.00;97145.72;5093937;28;20424;-71
2021/12/21 04:56:09;;;;;;;8.00;6.50;;;;;;;-6.98;100.00;97146.91;5075732;28;20460;-71
2021/12/21 04:58:36;;;;;;;6.10;5.50;;;;;;;-7.02;100.00;97135.47;5093798;28;20431;-71
2021/12/21 05:01:04;;;;;;;5.50;4.93;;;;;;;-6.96;100.00;97139.81;5093897;28;20447;-71
2021/12/21 05:03:30;;;;;;;5.20;4.63;;;;;;;-7.09;100.00;97124.34;5093644;28;20803;-72
2021/12/21 05:05:57;;;;;;;5.73;5.23;;;;;;;-7.13;100.00;97113.69;5093545;28;20423;-71
2021/12/21 05:08:27;;;;;;;5.33;4.83;;;;;;;-6.99;100.00;97133.28;5092604;28;20571;-71
2021/12/21 05:10:58;;;;;;;5.10;4.60;;;;;;;-7.19;100.00;97105.00;5093175;28;20845;-71
2021/12/21 05:13:27;;;;;;;4.00;3.70;;;;;;;-7.05;100.00;97138.41;5092671;28;20412;-71
2021/12/21 05:15:55;;;;;;;3.63;3.30;;;;;;;-6.90;100.00;97136.47;5092264;28;20522;-71
2021/12/21 05:18:22;;;;;;;4.53;4.10;;;;;;;-7.09;100.00;97127.72;5091998;28;20450;-71
2021/12/21 05:20:50;;;;;;;11.50;8.13;;;;;;;-7.15;100.00;97134.44;5091946;28;20479;-71
2021/12/21 05:23:17;;;;;;;15.83;11.40;;;;;;;-7.12;100.00;97138.38;5093426;28;20492;-71
2021/12/21 05:25:45;;;;;;;21.33;11.70;;;;;;;-7.26;100.00;97135.00;5093230;28;20427;-71
2021/12/21 05:28:14;;;;;;;17.53;9.73;;;;;;;-7.13;100.00;97139.38;5075015;28;20496;-71
2021/12/21 05:30:42;;;;;;;9.60;6.43;;;;;;;-7.09;100.00;97139.78;5093177;28;20420;-71
2021/12/21 05:33:09;;;;;;;9.70;7.43;;;;;;;-7.11;100.00;97139.19;5091952;28;20470;-71
2021/12/21 05:35:37;;;;;;;11.07;7.13;;;;;;;-7.45;100.00;97097.22;5075075;28;20792;-71
2021/12/21 05:38:06;;;;;;;12.97;8.50;;;;;;;-7.20;100.00;97136.81;5074983;28;20518;-71
2021/12/21 05:40:38;;;;;;;12.73;7.10;;;;;;;-7.29;100.00;97114.06;5091701;28;20459;-71
2021/12/21 05:43:07;;;;;;;10.67;7.50;;;;;;;-7.15;100.00;97141.34;5091912;28;20518;-71
2021/12/21 05:45:34;;;;;;;10.50;6.73;;;;;;;-7.30;100.00;97128.66;5093050;28;20518;-71
2021/12/21 05:48:01;;;;;;;13.57;7.40;;;;;;;-7.27;100.00;97138.56;5092586;28;20482;-70
2021/12/21 05:50:28;;;;;;;10.00;6.67;;;;;;;-7.27;100.00;97133.41;5091786;28;20427;-71
2021/12/21 05:52:55;;;;;;;13.10;11.60;;;;;;;-7.31;100.00;97131.44;5092629;28;20438;-71
2021/12/21 05:55:25;;;;;;;12.07;10.90;;;;;;;-7.22;100.00;97136.19;5082150;28;20473;-70
2021/12/21 05:57:52;;;;;;;10.90;8.17;;;;;;;-7.13;100.00;97134.25;5089541;28;20474;-71
2021/12/21 06:00:23;;;;;;;8.50;5.10;;;;;;;-6.92;100.00;97133.31;5108509;28;20823;-71
2021/12/21 06:02:50;;;;;;;7.17;5.77;;;;;;;-7.11;100.00;97137.41;5103563;28;20950;-71
2021/12/21 06:05:17;;;;;;;10.87;6.17;;;;;;;-7.38;100.00;97139.09;5091713;28;20439;-70
2021/12/21 06:07:53;;;;;;;8.10;6.37;;;;;;;-7.33;100.00;97130.84;5099155;28;20459;-71
2021/12/21 06:10:41;;;;;;;7.50;6.30;;;;;;;-7.47;100.00;97138.50;5082214;28;20518;-68
2021/12/21 06:13:58;;;;;;;7.20;5.83;;;;;;;-7.51;100.00;97101.34;5091071;28;20953;-68
2021/12/21 06:22:45;;;;;;;8.23;6.30;;;;;;;-7.62;100.00;97101.88;5091233;28;20459;-68
2021/12/21 06:26:43;;;;;;;6.13;5.53;;;;;;;-7.34;100.00;97150.59;5094152;28;20498;-68
2021/12/21 06:29:10;;;;;;;9.07;5.97;;;;;;;-7.45;100.00;97146.00;5093955;28;20450;-68
2021/12/21 06:31:39;;;;;;;5.70;5.07;;;;;;;-7.54;100.00;97152.28;5084240;28;20435;-70
2021/12/21 06:34:06;;;;;;;6.13;4.50;;;;;;;-7.53;100.00;97146.94;5103123;28;20427;-69
2021/12/21 06:36:33;;;;;;;13.90;7.20;;;;;;;-6.97;100.00;97159.56;5100631;28;20477;-68
2021/12/21 06:39:00;;;;;;;9.83;5.67;;;;;;;-7.34;100.00;97144.66;5098506;28;20488;-68
2021/12/21 06:41:28;;;;;;;10.13;6.40;;;;;;;-7.34;100.00;97162.66;5095218;28;20439;-68
2021/12/21 06:43:54;;;;;;;11.00;5.63;;;;;;;-7.71;100.00;97161.28;5076170;28;20431;-69
2021/12/21 06:51:52;;;;;;;7.07;5.67;;;;;;;-7.66;100.00;97161.50;5093111;28;20882;-69
2021/12/21 06:54:20;;;;;;;7.80;6.20;;;;;;;-7.56;100.00;97177.34;5074816;28;20501;-68
2021/12/21 06:56:47;;;;;;;8.33;7.30;;;;;;;-7.54;100.00;97172.81;5093094;28;20487;-68
2021/12/21 06:59:14;;;;;;;12.33;7.87;;;;;;;-7.67;100.00;97158.16;5074875;28;20504;-68
2021/12/21 07:01:41;;;;;;;8.33;7.30;;;;;;;-7.50;100.00;97184.28;5092159;28;20454;-68
2021/12/21 07:04:10;;;;;;;10.70;7.27;;;;;;;-7.46;100.00;97168.31;5090520;28;21029;-69
2021/12/21 07:06:39;;;;;;;7.83;6.13;;;;;;;-7.33;100.00;97184.78;5091506;28;20487;-69
2021/12/21 07:09:18;;;;;;;14.57;6.40;;;;;;;-7.42;100.00;97173.88;5090478;28;20800;-68
2021/12/21 07:11:56;;;;;;;6.23;5.10;;;;;;;-7.65;100.00;97165.66;5090086;28;20432;-68
2021/12/21 07:20:17;;;;;;;5.37;4.87;;;;;;;-7.58;100.00;97174.19;5032049;28;20489;-69
2021/12/21 07:22:44;;;;;;;13.63;7.60;;;;;;;-7.59;100.00;97175.97;5032167;28;20488;-69
2021/12/21 07:25:11;;;;;;;12.27;9.27;;;;;;;-7.54;100.00;97168.47;5058153;28;20527;-68
2021/12/21 07:27:37;;;;;;;9.70;8.87;;;;;;;-7.51;100.00;97175.78;5090009;28;20512;-69
2021/12/21 07:30:06;;;;;;;12.90;8.50;;;;;;;-7.48;100.00;97177.19;5090151;28;20474;-69
2021/12/21 07:32:32;;;;;;;11.73;7.77;;;;;;;-7.50;100.00;97185.06;5091536;28;20435;-69
2021/12/21 07:34:59;;;;;;;8.00;7.17;;;;;;;-7.45;100.00;97181.97;5095434;28;20442;-68
2021/12/21 07:37:26;;;;;;;8.07;7.27;;;;;;;-7.61;100.00;97152.25;5095318;28;20476;-69
2021/12/21 07:39:53;;;;;;;9.70;6.47;;;;;;;-7.48;100.00;97177.19;5077091;28;20494;-68
2021/12/21 07:42:20;;;;;;;7.80;6.80;;;;;;;-7.36;100.00;97182.56;5093826;28;20471;-68
2021/12/21 07:44:48;;;;;;;6.43;5.37;;;;;;;-7.26;100.00;97181.22;5093832;28;20470;-69
2021/12/21 07:47:16;;;;;;;6.97;5.57;;;;;;;-7.26;100.00;97180.44;5095082;28;20447;-68
2021/12/21 07:49:43;;;;;;;9.80;7.60;;;;;;;-7.33;100.00;97169.38;5076844;28;20439;-69
2021/12/21 07:52:11;;;;;;;10.00;7.50;;;;;;;-7.34;100.00;97171.16;5093727;28;20480;-69
2021/12/21 07:54:38;;;;;;;11.40;7.80;;;;;;;-7.34;100.00;97178.84;5093527;28;20466;-69
2021/12/21 07:57:08;;;;;;;10.50;7.70;;;;;;;-7.31;100.00;97144.28;5093565;28;20512;-68
2021/12/21 07:59:36;;;;;;;12.40;6.83;;;;;;;-7.12;100.00;97169.22;5093276;28;21015;-69
2021/12/21 08:02:10;;;;;;;10.77;8.60;;;;;;;-7.08;100.00;97175.53;5077409;28;20434;-69
2021/12/21 08:04:38;;;;;;;12.30;9.27;;;;;;;-7.04;100.00;97169.06;5093429;28;20437;-69
2021/12/21 08:07:11;;;;;;;11.93;9.83;;;;;;;-6.98;100.00;97170.84;5094578;28;20447;-69
2021/12/21 08:09:41;;;;;;;16.33;10.80;;;;;;;-7.05;100.00;97151.28;5094641;28;20462;-69
2021/12/21 08:12:17;;;;;;;13.87;11.43;;;;;;;-7.06;100.00;97150.47;5094527;28;20468;-68
2021/12/21 08:14:45;;;;;;;14.77;11.47;;;;;;;-6.82;100.00;97174.03;5093108;28;20974;-69
2021/12/21 08:17:13;;;;;;;18.10;12.30;;;;;;;-6.85;100.00;97168.28;5093149;28;20455;-68
2021/12/21 08:19:43;;;;;;;22.23;13.10;;;;;;;-6.72;100.00;97177.03;5094628;28;20435;-68
2021/12/21 08:22:12;;;;;;;32.57;18.87;;;;;;;-6.77;100.00;97159.63;5092959;28;20442;-68
2021/12/21 08:24:43;;;;;;;31.10;18.57;;;;;;;-6.64;100.00;97179.41;5093106;28;21226;-69
2021/12/21 08:27:10;;;;;;;40.33;22.17;;;;;;;-6.70;100.00;97155.25;5094363;28;20450;-69
2021/12/21 08:29:36;;;;;;;102.17;53.73;;;;;;;-6.52;100.00;97174.50;5093008;28;20427;-69
2021/12/21 08:32:03;;;;;;;38.03;19.07;;;;;;;-6.50;100.00;97170.72;5092793;28;20436;-68
2021/12/21 08:34:30;;;;;;;27.77;18.10;;;;;;;-6.55;100.00;97148.16;5076053;28;20530;-69
2021/12/21 08:36:57;;;;;;;28.37;17.33;;;;;;;-6.43;100.00;97165.56;5092672;28;21072;-69
2021/12/21 08:39:24;;;;;;;25.90;17.30;;;;;;;-6.42;100.00;97162.00;5094009;28;20463;-69
2021/12/21 08:41:58;;;;;;;20.93;14.33;;;;;;;-6.55;100.00;97144.78;5092696;28;20498;-68
2021/12/21 08:44:26;;;;;;;21.03;14.00;;;;;;;-6.34;100.00;97166.97;5091772;28;20782;-69
2021/12/21 08:46:56;;;;;;;15.23;13.37;;;;;;;-6.30;100.00;97166.38;5092484;28;20458;-69
2021/12/21 08:49:25;;;;;;;22.57;12.20;;;;;;;-6.39;100.00;97138.50;5093977;28;20431;-69
2021/12/21 08:51:53;;;;;;;13.70;11.20;;;;;;;-6.13;100.00;97166.78;5092330;28;20488;-70
2021/12/21 08:54:19;;;;;;;19.00;11.87;;;;;;;-6.11;100.00;97172.50;5092433;28;20455;-69
2021/12/21 08:56:48;;;;;;;16.60;11.70;;;;;;;-6.05;100.00;97169.13;5092292;28;20447;-69
2021/12/21 08:59:16;;;;;;;12.70;8.50;;;;;;;-6.04;100.00;97172.47;5092010;28;20447;-69
2021/12/21 09:01:43;;;;;;;9.73;7.23;;;;;;;-6.14;100.00;97159.22;5093410;28;20459;-69
2021/12/21 09:04:11;;;;;;;18.33;15.00;;;;;;;-6.02;100.00;97160.19;5092462;28;20847;-69
2021/12/21 09:06:38;;;;;;;18.37;14.33;;;;;;;-5.86;100.00;97175.22;5075176;28;20455;-69
2021/12/21 09:09:04;;;;;;;22.80;13.90;;;;;;;-5.62;100.00;97170.38;5093385;28;20451;-69
2021/12/21 09:11:31;;;;;;;27.60;16.13;;;;;;;-5.75;100.00;97141.09;5093367;28;20431;-69
2021/12/21 09:13:58;;;;;;;41.03;24.30;;;;;;;-5.54;100.00;97173.53;5074984;28;20446;-69
2021/12/21 09:16:25;;;;;;;17.50;11.90;;;;;;;-5.58;100.00;97180.09;5091841;28;20439;-69
2021/12/21 09:18:52;;;;;;;10.87;7.07;;;;;;;-5.73;100.00;97144.28;5093134;28;20432;-70
2021/12/21 09:21:18;;;;;;;19.50;7.57;;;;;;;-5.47;100.00;97182.06;5091711;28;20494;-69
2021/12/21 09:23:45;;;;;;;34.03;19.23;;;;;;;-5.49;100.00;97168.56;5091585;28;20875;-69
2021/12/21 09:26:13;;;;;;;12.90;8.03;;;;;;;-5.21;100.00;97172.63;5091577;28;20435;-69
2021/12/21 09:28:40;;;;;;;12.10;8.17;;;;;;;-5.25;100.00;97177.41;5092924;28;20463;-70
2021/12/21 09:31:07;;;;;;;96.43;59.13;;;;;;;-5.33;100.00;97174.28;5092802;28;20979;-69
2021/12/21 09:33:33;;;;;;;61.20;43.50;;;;;;;-5.32;100.00;97168.13;5092918;28;20519;-69
2021/12/21 09:36:00;;;;;;;18.73;13.50;;;;;;;-5.29;100.00;97183.97;5091497;28;20466;-69
2021/12/21 09:38:27;;;;;;;40.40;26.90;;;;;;;-5.19;100.00;97178.38;5091644;28;20842;-68
2021/12/21 09:40:55;;;;;;;12.60;11.17;;;;;;;-5.01;100.00;97173.34;5092678;28;20807;-69
2021/12/21 09:43:22;;;;;;;10.13;7.23;;;;;;;-5.06;100.00;97178.34;5092712;28;20467;-68
2021/12/21 09:45:49;;;;;;;8.73;6.33;;;;;;;-5.09;100.00;97170.97;5092514;28;20431;-69
2021/12/21 09:48:16;;;;;;;14.40;8.23;;;;;;;-5.00;100.00;97167.19;5091007;28;20466;-69
2021/12/21 09:50:44;;;;;;;23.90;15.70;;;;;;;-4.85;100.00;97161.75;5091135;28;20443;-69
2021/12/21 09:53:11;;;;;;;8.63;7.73;;;;;;;-4.70;100.00;97176.94;5091153;28;20435;-69
2021/12/21 09:55:43;;;;;;;9.17;7.20;;;;;;;-4.65;100.00;97156.47;5091193;28;20493;-69
2021/12/21 09:58:09;;;;;;;25.63;11.43;;;;;;;-4.57;100.00;97169.09;5092278;28;20884;-69
2021/12/21 10:00:36;;;;;;;14.40;10.70;;;;;;;-4.56;100.00;97165.53;5092057;28;20471;-69
2021/12/21 10:03:09;;;;;;;12.63;9.40;;;;;;;-4.57;100.00;97156.19;5090922;28;20530;-69
2021/12/21 10:05:39;;;;;;;8.53;7.53;;;;;;;-4.32;100.00;97163.97;5090854;28;20443;-69
2021/12/21 10:08:10;;;;;;;11.73;6.53;;;;;;;-4.22;100.00;97165.06;5092461;28;20490;-69
2021/12/21 10:10:40;;;;;;;6.47;5.83;;;;;;;-4.25;100.00;97151.81;5090902;28;20471;-68
2021/12/21 10:13:12;;;;;;;15.87;13.40;;;;;;;-4.08;100.00;97167.53;5074047;28;20496;-70
2021/12/21 10:15:45;;;;;;;9.23;6.67;;;;;;;-4.02;100.00;97162.31;5090772;28;20493;-70
2021/12/21 10:18:13;;;;;;;7.53;6.83;;;;;;;-3.94;100.00;97146.56;5091149;28;20463;-69
2021/12/21 10:20:47;;;;;;;9.27;8.30;;;;;;;-3.98;100.00;97166.06;5073923;28;20499;-69
2021/12/21 10:23:25;;;;;;;14.90;7.27;;;;;;;-4.07;100.00;97144.09;5090786;28;20510;-69
2021/12/21 10:26:06;;;;;;;10.57;7.73;;;;;;;-4.07;100.00;97158.78;5090699;28;20431;-69
2021/12/21 10:28:57;;;;;;;14.20;9.67;;;;;;;-3.89;100.00;97162.19;5092229;28;20826;-69
2021/12/21 10:31:32;;;;;;;12.67;10.17;;;;;;;-3.86;100.00;97155.81;5091903;28;20481;-69
2021/12/21 10:34:01;;;;;;;20.60;10.80;;;;;;;-3.84;100.00;97156.41;5090624;28;20472;-69
2021/12/21 10:36:29;;;;;;;14.10;10.30;;;;;;;-3.89;100.00;97144.09;5073445;28;20463;-70
2021/12/21 10:39:01;;;;;;;16.47;11.43;;;;;;;-3.81;100.00;97153.38;5073803;28;20465;-69
2021/12/21 10:41:40;;;;;;;18.93;11.57;;;;;;;-3.69;100.00;97143.91;5090361;28;20534;-69
2021/12/21 10:44:10;;;;;;;12.00;8.90;;;;;;;-3.61;100.00;97146.19;5093536;28;20411;-71
2021/12/21 10:46:43;;;;;;;13.40;10.20;;;;;;;-3.54;100.00;97145.34;5074198;28;20481;-70
2021/12/21 10:49:31;;;;;;;13.33;10.57;;;;;;;-3.44;100.00;97141.25;5090218;28;20431;-69
2021/12/21 10:52:04;;;;;;;14.30;10.50;;;;;;;-3.35;100.00;97141.75;5091606;28;20433;-69
2021/12/21 10:54:41;;;;;;;14.73;10.90;;;;;;;-3.39;100.00;97138.81;5091626;28;20921;-69
2021/12/21 10:57:11;;;;;;;16.13;8.30;;;;;;;-3.30;100.00;97140.09;5073461;28;20580;-69
2021/12/21 10:59:45;;;;;;;14.33;8.80;;;;;;;-3.19;100.00;97130.81;5089957;28;20522;-70
2021/12/21 11:02:27;;;;;;;14.60;8.97;;;;;;;-3.27;100.00;97097.50;5090063;28;20461;-70
2021/12/21 11:05:11;;;;;;;17.90;10.17;;;;;;;-2.92;100.00;97127.88;5073312;28;20463;-70
2021/12/21 11:07:47;;;;;;;13.93;9.73;;;;;;;-3.04;100.00;97122.66;5089745;28;20455;-69
2021/12/21 11:10:20;;;;;;;9.50;7.93;;;;;;;-2.85;100.00;97125.97;5073734;28;20439;-69
2021/12/21 11:13:10;;;;;;;12.40;7.47;;;;;;;-2.76;100.00;97119.50;5090823;28;20445;-69
2021/12/21 11:15:42;;;;;;;13.30;9.37;;;;;;;-2.95;100.00;97090.28;5091439;28;20440;-69
2021/12/21 11:18:16;;;;;;;14.10;8.90;;;;;;;-2.73;100.00;97121.63;5090618;28;20463;-69
2021/12/21 11:20:46;;;;;;;16.33;9.50;;;;;;;-2.70;100.00;97123.75;5073473;28;20444;-69
2021/12/21 11:23:14;;;;;;;13.27;7.70;;;;;;;-2.62;100.00;97120.88;5090174;28;20830;-70
2021/12/21 11:25:43;;;;;;;8.30;7.50;;;;;;;-2.71;100.00;97088.56;5089958;28;20439;-69
2021/12/21 11:28:14;;;;;;;10.93;7.10;;;;;;;-2.49;100.00;97112.91;5073149;28;20458;-70
2021/12/21 11:30:42;;;;;;;8.70;7.23;;;;;;;-2.46;100.00;97109.84;5089795;28;20463;-69
2021/12/21 11:33:11;;;;;;;10.40;8.00;;;;;;;-2.53;100.00;97091.06;5089796;28;20443;-70
2021/12/21 11:38:08;;;;;;;8.00;6.37;;;;;;;-2.10;100.00;97095.91;5091073;28;21019;-70
2021/12/21 11:40:39;;;;;;;7.97;6.10;;;;;;;-1.95;100.00;97107.63;5091020;28;20506;-70
2021/12/21 11:43:22;;;;;;;8.80;7.90;;;;;;;-2.18;100.00;97082.50;5090105;28;20824;-69
2021/12/21 11:46:14;;;;;;;11.33;7.93;;;;;;;-2.10;100.00;97108.09;5091727;28;20415;-70
2021/12/21 11:48:48;;;;;;;9.57;7.10;;;;;;;-2.08;100.00;97098.28;5091211;28;20883;-70
2021/12/21 11:51:15;;;;;;;8.50;6.53;;;;;;;-2.04;100.00;97093.44;5089862;28;20602;-69
2021/12/21 11:53:43;;;;;;;8.33;7.17;;;;;;;-2.09;100.00;97091.53;5091252;28;20508;-70
2021/12/21 11:56:18;;;;;;;7.47;6.77;;;;;;;-2.02;100.00;97096.56;5089756;28;20999;-70
2021/12/21 11:58:50;;;;;;;10.10;7.07;;;;;;;-1.85;100.00;97087.13;5073044;28;20455;-70
2021/12/21 12:01:22;;;;;;;10.93;6.70;;;;;;;-1.74;100.00;97088.88;5089675;28;20477;-70
2021/12/21 12:03:59;;;;;;;15.17;8.40;;;;;;;-1.78;100.00;97090.34;5089717;28;20446;-72
2021/12/21 12:06:41;;;;;;;9.73;6.57;;;;;;;-1.55;100.00;97087.72;5090982;28;20418;-70
2021/12/21 12:09:08;;;;;;;8.57;7.10;;;;;;;-1.60;100.00;97084.25;5091172;28;20835;-69
2021/12/21 12:11:36;;;;;;;12.83;6.97;;;;;;;-1.66;100.00;97087.75;5089748;28;20448;-70
2021/12/21 12:14:12;;;;;;;9.87;7.73;;;;;;;-1.61;100.00;97073.06;5091113;28;20470;-70
2021/12/21 12:16:41;;;;;;;6.90;6.30;;;;;;;-1.55;100.00;97092.13;5089605;28;20560;-70
2021/12/21 12:19:14;;;;;;;11.63;7.67;;;;;;;-1.64;100.00;97081.31;5089816;28;20432;-70
2021/12/21 12:21:59;;;;;;;10.67;8.10;;;;;;;-1.73;100.00;97058.59;5092963;28;20500;-70
2021/12/21 12:24:39;;;;;;;9.57;8.17;;;;;;;-1.63;100.00;97077.69;5093169;28;20435;-69
2021/12/21 12:27:20;;;;;;;9.73;7.83;;;;;;;-1.55;100.00;97069.56;5076388;28;20555;-70